sensor_id;sensor_type;location;lat;lon;timestamp;pressure;altitude;pressure_sealevel;temperature;humidity
74329;BME280;62749;51.982;5.916;2024-01-16T00:01:52;77888.22;;;-147.22;84.12
74329;BME280;62749;51.982;5.916;2024-01-16T00:04:22;77896.28;;;-147.22;83.99
74329;BME280;62749;51.982;5.916;2024-01-16T00:06:53;77900.31;;;-147.22;83.99
74329;BME280;62749;51.982;5.916;2024-01-16T00:09:22;77900.31;;;-147.22;83.97
74329;BME280;62749;51.982;5.916;2024-01-16T00:11:52;77896.28;;;-147.22;83.98
74329;BME280;62749;51.982;5.916;2024-01-16T00:14:21;77904.34;;;-147.22;83.69
74329;BME280;62749;51.982;5.916;2024-01-16T00:16:53;77900.31;;;-147.22;83.66
74329;BME280;62749;51.982;5.916;2024-01-16T00:19:22;77910.41;;;-147.22;83.62
74329;BME280;62749;51.982;5.916;2024-01-16T00:21:52;77900.31;;;-147.22;83.43
74329;BME280;62749;51.982;5.916;2024-01-16T00:24:21;77894.25;;;-147.22;83.58
74329;BME280;62749;51.982;5.916;2024-01-16T00:26:51;77898.28;;;-147.22;83.20
74329;BME280;62749;51.982;5.916;2024-01-16T00:29:20;77900.31;;;-147.22;83.24
74329;BME280;62749;51.982;5.916;2024-01-16T00:31:52;77908.38;;;-147.22;83.24
74329;BME280;62749;51.982;5.916;2024-01-16T00:34:22;77910.41;;;-147.22;83.18
74329;BME280;62749;51.982;5.916;2024-01-16T00:36:51;77908.38;;;-147.22;83.09
74329;BME280;62749;51.982;5.916;2024-01-16T00:39:21;77908.38;;;-147.22;83.00
74329;BME280;62749;51.982;5.916;2024-01-16T00:41:50;77912.41;;;-147.22;82.87
74329;BME280;62749;51.982;5.916;2024-01-16T00:44:19;77916.44;;;-147.22;82.77
74329;BME280;62749;51.982;5.916;2024-01-16T00:46:49;77908.38;;;-147.22;82.88
74329;BME280;62749;51.982;5.916;2024-01-16T00:49:21;77922.50;;;-147.22;82.75
74329;BME280;62749;51.982;5.916;2024-01-16T00:51:50;77934.59;;;-147.22;82.64
74329;BME280;62749;51.982;5.916;2024-01-16T00:54:22;77940.66;;;-147.22;82.58
74329;BME280;62749;51.982;5.916;2024-01-16T00:56:51;77944.69;;;-147.22;82.58
74329;BME280;62749;51.982;5.916;2024-01-16T00:59:26;77932.56;;;-147.22;82.88
74329;BME280;62749;51.982;5.916;2024-01-16T01:01:55;77934.59;;;-147.22;82.83
74329;BME280;62749;51.982;5.916;2024-01-16T01:04:27;77942.66;;;-147.22;82.64
74329;BME280;62749;51.982;5.916;2024-01-16T01:06:56;77946.69;;;-147.22;82.77
74329;BME280;62749;51.982;5.916;2024-01-16T01:09:26;77944.69;;;-147.22;82.68
74329;BME280;62749;51.982;5.916;2024-01-16T01:11:56;77940.66;;;-147.22;82.95
74329;BME280;62749;51.982;5.916;2024-01-16T01:14:25;77938.63;;;-147.22;82.82
74329;BME280;62749;51.982;5.916;2024-01-16T01:16:56;77944.69;;;-147.22;82.78
74329;BME280;62749;51.982;5.916;2024-01-16T01:19:28;77928.53;;;-147.22;82.75
74329;BME280;62749;51.982;5.916;2024-01-16T01:21:57;77940.66;;;-147.22;82.76
74329;BME280;62749;51.982;5.916;2024-01-16T01:24:27;77956.78;;;-147.22;82.72
74329;BME280;62749;51.982;5.916;2024-01-16T01:26:56;77952.75;;;-147.22;82.57
74329;BME280;62749;51.982;5.916;2024-01-16T01:29:25;77958.78;;;-147.22;82.62
74329;BME280;62749;51.982;5.916;2024-01-16T01:31:55;77960.81;;;-147.22;82.62
74329;BME280;62749;51.982;5.916;2024-01-16T01:34:24;77964.84;;;-147.22;82.57
74329;BME280;62749;51.982;5.916;2024-01-16T01:36:56;77962.81;;;-147.22;82.51
74329;BME280;62749;51.982;5.916;2024-01-16T01:39:26;77968.88;;;-147.22;82.61
74329;BME280;62749;51.982;5.916;2024-01-16T01:41:56;77956.78;;;-147.22;82.41
74329;BME280;62749;51.982;5.916;2024-01-16T01:44:25;77962.81;;;-147.22;82.64
74329;BME280;62749;51.982;5.916;2024-01-16T01:46:56;77962.81;;;-147.22;82.55
74329;BME280;62749;51.982;5.916;2024-01-16T01:49:27;77960.81;;;-147.22;82.44
74329;BME280;62749;51.982;5.916;2024-01-16T01:51:59;77976.94;;;-147.22;82.74
74329;BME280;62749;51.982;5.916;2024-01-16T01:54:41;77972.91;;;-147.22;82.65
74329;BME280;62749;51.982;5.916;2024-01-16T01:57:11;77985.00;;;-147.22;82.71
74329;BME280;62749;51.982;5.916;2024-01-16T01:59:40;77980.97;;;-147.22;82.83
74329;BME280;62749;51.982;5.916;2024-01-16T02:02:11;77983.00;;;-147.22;82.58
74329;BME280;62749;51.982;5.916;2024-01-16T02:04:43;77985.00;;;-147.22;82.68
74329;BME280;62749;51.982;5.916;2024-01-16T02:07:16;77980.97;;;-147.22;82.86
74329;BME280;62749;51.982;5.916;2024-01-16T02:09:45;77978.97;;;-147.22;82.81
74329;BME280;62749;51.982;5.916;2024-01-16T02:12:15;77980.97;;;-147.22;82.91
74329;BME280;62749;51.982;5.916;2024-01-16T02:14:45;77972.91;;;-147.22;82.73
74329;BME280;62749;51.982;5.916;2024-01-16T02:17:14;77972.91;;;-147.22;82.70
74329;BME280;62749;51.982;5.916;2024-01-16T02:23:01;77966.84;;;-147.22;82.70
74329;BME280;62749;51.982;5.916;2024-01-16T02:25:35;77966.84;;;-147.22;82.75
74329;BME280;62749;51.982;5.916;2024-01-16T02:28:05;77964.84;;;-147.22;82.91
74329;BME280;62749;51.982;5.916;2024-01-16T02:30:34;77962.81;;;-147.22;82.74
74329;BME280;62749;51.982;5.916;2024-01-16T02:33:04;77958.78;;;-147.22;82.80
74329;BME280;62749;51.982;5.916;2024-01-16T02:35:34;77968.88;;;-147.22;82.67
74329;BME280;62749;51.982;5.916;2024-01-16T02:38:04;77972.91;;;-147.22;82.74
74329;BME280;62749;51.982;5.916;2024-01-16T02:40:36;77976.94;;;-147.22;83.05
74329;BME280;62749;51.982;5.916;2024-01-16T02:43:05;77989.03;;;-147.22;82.88
74329;BME280;62749;51.982;5.916;2024-01-16T02:48:47;77972.91;;;-147.22;83.32
74329;BME280;62749;51.982;5.916;2024-01-16T02:51:16;77968.88;;;-147.22;83.33
74329;BME280;62749;51.982;5.916;2024-01-16T02:53:46;77966.84;;;-147.22;83.50
74329;BME280;62749;51.982;5.916;2024-01-16T02:56:18;77964.84;;;-147.22;83.48
74329;BME280;62749;51.982;5.916;2024-01-16T02:58:47;77964.84;;;-147.22;83.42
74329;BME280;62749;51.982;5.916;2024-01-16T03:01:17;77964.84;;;-147.22;83.61
74329;BME280;62749;51.982;5.916;2024-01-16T03:03:46;77964.84;;;-147.22;83.84
74329;BME280;62749;51.982;5.916;2024-01-16T03:06:22;77958.78;;;-147.22;83.96
74329;BME280;62749;51.982;5.916;2024-01-16T03:08:52;77964.84;;;-147.22;83.86
74329;BME280;62749;51.982;5.916;2024-01-16T03:11:24;77962.81;;;-147.22;84.03
74329;BME280;62749;51.982;5.916;2024-01-16T03:13:54;77956.78;;;-147.22;84.10
74329;BME280;62749;51.982;5.916;2024-01-16T03:16:24;77944.69;;;-147.22;84.33
74329;BME280;62749;51.982;5.916;2024-01-16T03:18:53;77940.66;;;-147.22;84.05
74329;BME280;62749;51.982;5.916;2024-01-16T03:21:23;77938.63;;;-147.22;84.05
74329;BME280;62749;51.982;5.916;2024-01-16T03:23:52;77932.56;;;-147.22;84.08
74329;BME280;62749;51.982;5.916;2024-01-16T03:26:24;77938.63;;;-147.22;84.22
74329;BME280;62749;51.982;5.916;2024-01-16T03:28:53;77946.69;;;-147.22;84.09
74329;BME280;62749;51.982;5.916;2024-01-16T03:31:23;77938.63;;;-147.22;84.25
74329;BME280;62749;51.982;5.916;2024-01-16T03:33:52;77940.66;;;-147.22;84.22
74329;BME280;62749;51.982;5.916;2024-01-16T03:36:22;77938.63;;;-147.22;84.26
74329;BME280;62749;51.982;5.916;2024-01-16T03:38:51;77936.59;;;-147.22;84.25
74329;BME280;62749;51.982;5.916;2024-01-16T03:41:21;77936.59;;;-147.22;84.42
74329;BME280;62749;51.982;5.916;2024-01-16T03:44:04;77936.59;;;-147.22;84.10
74329;BME280;62749;51.982;5.916;2024-01-16T03:46:33;77940.66;;;-147.22;84.11
74329;BME280;62749;51.982;5.916;2024-01-16T03:49:02;77936.59;;;-147.22;84.19
74329;BME280;62749;51.982;5.916;2024-01-16T03:51:32;77934.59;;;-147.22;84.22
74329;BME280;62749;51.982;5.916;2024-01-16T03:54:01;77936.59;;;-147.22;84.10
74329;BME280;62749;51.982;5.916;2024-01-16T03:56:31;77942.66;;;-147.22;84.10
74329;BME280;62749;51.982;5.916;2024-01-16T03:59:00;77942.66;;;-147.22;84.03
74329;BME280;62749;51.982;5.916;2024-01-16T04:01:33;77928.53;;;-147.22;83.93
74329;BME280;62749;51.982;5.916;2024-01-16T04:04:03;77930.56;;;-147.22;84.04
74329;BME280;62749;51.982;5.916;2024-01-16T04:06:35;77944.69;;;-147.22;83.86
74329;BME280;62749;51.982;5.916;2024-01-16T04:09:05;77936.59;;;-147.22;84.17
74329;BME280;62749;51.982;5.916;2024-01-16T04:11:34;77936.59;;;-147.22;83.95
74329;BME280;62749;51.982;5.916;2024-01-16T04:14:05;77938.63;;;-147.22;83.96
74329;BME280;62749;51.982;5.916;2024-01-16T04:16:37;77940.66;;;-147.22;83.78
74329;BME280;62749;51.982;5.916;2024-01-16T04:19:06;77930.56;;;-147.22;83.93
74329;BME280;62749;51.982;5.916;2024-01-16T04:21:36;77940.66;;;-147.22;83.80
74329;BME280;62749;51.982;5.916;2024-01-16T04:24:06;77936.59;;;-147.22;83.72
74329;BME280;62749;51.982;5.916;2024-01-16T04:26:36;77940.66;;;-147.22;83.78
74329;BME280;62749;51.982;5.916;2024-01-16T04:29:06;77936.59;;;-147.22;83.88
74329;BME280;62749;51.982;5.916;2024-01-16T04:31:41;77936.59;;;-147.22;83.90
74329;BME280;62749;51.982;5.916;2024-01-16T04:34:11;77924.50;;;-147.22;83.97
74329;BME280;62749;51.982;5.916;2024-01-16T04:36:40;77926.53;;;-147.22;83.75
74329;BME280;62749;51.982;5.916;2024-01-16T04:39:10;77924.50;;;-147.22;83.87
74329;BME280;62749;51.982;5.916;2024-01-16T04:41:40;77916.44;;;-147.22;84.21
74329;BME280;62749;51.982;5.916;2024-01-16T04:44:09;77900.31;;;-147.22;84.31
74329;BME280;62749;51.982;5.916;2024-01-16T04:46:41;77894.25;;;-147.22;83.76
74329;BME280;62749;51.982;5.916;2024-01-16T04:49:11;77896.28;;;-147.22;83.90
74329;BME280;62749;51.982;5.916;2024-01-16T04:51:40;77884.19;;;-147.22;83.63
74329;BME280;62749;51.982;5.916;2024-01-16T04:54:11;77878.13;;;-147.22;83.32
74329;BME280;62749;51.982;5.916;2024-01-16T04:56:41;77886.19;;;-147.22;83.23
74329;BME280;62749;51.982;5.916;2024-01-16T04:59:10;77878.13;;;-147.22;83.07
74329;BME280;62749;51.982;5.916;2024-01-16T05:01:42;77884.19;;;-147.22;82.94
74329;BME280;62749;51.982;5.916;2024-01-16T05:04:12;77888.22;;;-147.22;82.91
74329;BME280;62749;51.982;5.916;2024-01-16T05:06:41;77874.09;;;-147.22;83.14
74329;BME280;62749;51.982;5.916;2024-01-16T05:09:11;77868.06;;;-147.22;82.96
74329;BME280;62749;51.982;5.916;2024-01-16T05:11:40;77874.09;;;-147.22;82.87
74329;BME280;62749;51.982;5.916;2024-01-16T05:14:10;77886.19;;;-147.22;82.85
74329;BME280;62749;51.982;5.916;2024-01-16T05:16:42;77878.13;;;-147.22;83.27
74329;BME280;62749;51.982;5.916;2024-01-16T05:19:11;77862.00;;;-147.22;83.20
74329;BME280;62749;51.982;5.916;2024-01-16T05:21:41;77862.00;;;-147.22;83.07
74329;BME280;62749;51.982;5.916;2024-01-16T05:24:12;77868.06;;;-147.22;83.04
74329;BME280;62749;51.982;5.916;2024-01-16T05:26:41;77864.00;;;-147.22;83.09
74329;BME280;62749;51.982;5.916;2024-01-16T05:29:11;77868.06;;;-147.22;83.32
74329;BME280;62749;51.982;5.916;2024-01-16T05:31:44;77880.16;;;-147.22;82.89
74329;BME280;62749;51.982;5.916;2024-01-16T05:34:13;77896.28;;;-147.22;83.30
74329;BME280;62749;51.982;5.916;2024-01-16T05:36:43;77892.25;;;-147.22;83.29
74329;BME280;62749;51.982;5.916;2024-01-16T05:39:12;77876.13;;;-147.22;83.31
74329;BME280;62749;51.982;5.916;2024-01-16T05:41:43;77872.09;;;-147.22;83.17
74329;BME280;62749;51.982;5.916;2024-01-16T05:47:24;77884.19;;;-147.22;82.92
74329;BME280;62749;51.982;5.916;2024-01-16T05:49:54;77896.28;;;-147.22;82.98
74329;BME280;62749;51.982;5.916;2024-01-16T05:52:23;77896.28;;;-147.22;83.26
74329;BME280;62749;51.982;5.916;2024-01-16T05:54:53;77894.25;;;-147.22;82.93
74329;BME280;62749;51.982;5.916;2024-01-16T05:57:24;77884.19;;;-147.22;83.14
74329;BME280;62749;51.982;5.916;2024-01-16T05:59:54;77882.16;;;-147.22;82.84
74329;BME280;62749;51.982;5.916;2024-01-16T06:02:25;77872.09;;;-147.22;82.77
74329;BME280;62749;51.982;5.916;2024-01-16T06:04:55;77876.13;;;-147.22;82.57
74329;BME280;62749;51.982;5.916;2024-01-16T06:07:24;77859.97;;;-147.22;82.33
74329;BME280;62749;51.982;5.916;2024-01-16T06:09:54;77884.19;;;-147.22;82.02
74329;BME280;62749;51.982;5.916;2024-01-16T06:12:23;77878.13;;;-147.22;82.35
74329;BME280;62749;51.982;5.916;2024-01-16T06:14:52;77882.16;;;-147.22;82.16
74329;BME280;62749;51.982;5.916;2024-01-16T06:17:22;77882.16;;;-147.22;82.25
74329;BME280;62749;51.982;5.916;2024-01-16T06:19:54;77878.13;;;-147.22;82.31
74329;BME280;62749;51.982;5.916;2024-01-16T06:22:24;77870.06;;;-147.22;82.34
74329;BME280;62749;51.982;5.916;2024-01-16T06:24:53;77870.06;;;-147.22;82.33
74329;BME280;62749;51.982;5.916;2024-01-16T06:27:22;77878.13;;;-147.22;82.62
74329;BME280;62749;51.982;5.916;2024-01-16T06:29:52;77870.06;;;-147.22;82.40
74329;BME280;62749;51.982;5.916;2024-01-16T06:32:21;77872.09;;;-147.22;82.70
74329;BME280;62749;51.982;5.916;2024-01-16T06:34:50;77866.03;;;-147.22;82.70
74329;BME280;62749;51.982;5.916;2024-01-16T06:37:22;77862.00;;;-147.22;82.66
74329;BME280;62749;51.982;5.916;2024-01-16T06:39:52;77862.00;;;-147.22;82.44
74329;BME280;62749;51.982;5.916;2024-01-16T06:42:21;77868.06;;;-147.22;82.54
74329;BME280;62749;51.982;5.916;2024-01-16T06:44:51;77868.06;;;-147.22;82.40
74329;BME280;62749;51.982;5.916;2024-01-16T06:47:20;77870.06;;;-147.22;82.57
74329;BME280;62749;51.982;5.916;2024-01-16T06:49:50;77884.19;;;-147.22;82.62
74329;BME280;62749;51.982;5.916;2024-01-16T06:52:22;77884.19;;;-147.22;82.79
74329;BME280;62749;51.982;5.916;2024-01-16T06:54:51;77888.22;;;-147.22;82.79
74329;BME280;62749;51.982;5.916;2024-01-16T06:57:33;77880.16;;;-147.22;82.82
74329;BME280;62749;51.982;5.916;2024-01-16T07:00:03;77882.16;;;-147.22;82.98
74329;BME280;62749;51.982;5.916;2024-01-16T07:02:33;77882.16;;;-147.22;82.98
74329;BME280;62749;51.982;5.916;2024-01-16T07:05:03;77878.13;;;-147.22;83.02
74329;BME280;62749;51.982;5.916;2024-01-16T07:07:35;77880.16;;;-147.22;82.94
74329;BME280;62749;51.982;5.916;2024-01-16T07:10:06;77882.16;;;-147.22;83.05
74329;BME280;62749;51.982;5.916;2024-01-16T07:12:44;77896.28;;;-147.22;83.11
74329;BME280;62749;51.982;5.916;2024-01-16T07:15:15;77888.22;;;-147.22;83.32
74329;BME280;62749;51.982;5.916;2024-01-16T07:17:45;77900.31;;;-147.22;83.34
74329;BME280;62749;51.982;5.916;2024-01-16T07:20:14;77900.31;;;-147.22;83.37
74329;BME280;62749;51.982;5.916;2024-01-16T07:22:46;77894.25;;;-147.22;83.50
74329;BME280;62749;51.982;5.916;2024-01-16T07:25:16;77902.34;;;-147.22;83.40
74329;BME280;62749;51.982;5.916;2024-01-16T07:27:45;77890.22;;;-147.22;83.68
74329;BME280;62749;51.982;5.916;2024-01-16T07:30:16;77890.22;;;-147.22;83.58
74329;BME280;62749;51.982;5.916;2024-01-16T07:32:46;77896.28;;;-147.22;83.31
74329;BME280;62749;51.982;5.916;2024-01-16T07:35:15;77892.25;;;-147.22;83.54
74329;BME280;62749;51.982;5.916;2024-01-16T07:37:47;77872.09;;;-147.22;83.58
74329;BME280;62749;51.982;5.916;2024-01-16T07:40:17;77870.06;;;-147.22;83.41
74329;BME280;62749;51.982;5.916;2024-01-16T07:42:46;77876.13;;;-147.22;83.25
74329;BME280;62749;51.982;5.916;2024-01-16T07:45:16;77870.06;;;-147.22;83.28
74329;BME280;62749;51.982;5.916;2024-01-16T07:47:45;77864.00;;;-147.22;82.98
74329;BME280;62749;51.982;5.916;2024-01-16T07:50:15;77864.00;;;-147.22;82.94
74329;BME280;62749;51.982;5.916;2024-01-16T07:52:47;77870.06;;;-147.22;82.46
74329;BME280;62749;51.982;5.916;2024-01-16T07:55:17;77868.06;;;-147.22;82.36
74329;BME280;62749;51.982;5.916;2024-01-16T07:57:46;77872.09;;;-147.22;82.30
74329;BME280;62749;51.982;5.916;2024-01-16T08:00:16;77882.16;;;-147.22;82.06
74329;BME280;62749;51.982;5.916;2024-01-16T08:02:46;77876.13;;;-147.22;82.11
74329;BME280;62749;51.982;5.916;2024-01-16T08:05:15;77868.06;;;-147.22;82.07
74329;BME280;62749;51.982;5.916;2024-01-16T08:07:50;77876.13;;;-147.22;81.70
74329;BME280;62749;51.982;5.916;2024-01-16T08:10:20;77888.22;;;-147.22;81.41
74329;BME280;62749;51.982;5.916;2024-01-16T08:12:49;77900.31;;;-147.22;81.67
74329;BME280;62749;51.982;5.916;2024-01-16T08:15:19;77900.31;;;-147.22;81.78
74329;BME280;62749;51.982;5.916;2024-01-16T08:17:48;77908.38;;;-147.22;81.24
74329;BME280;62749;51.982;5.916;2024-01-16T08:20:18;77906.38;;;-147.22;80.99
74329;BME280;62749;51.982;5.916;2024-01-16T08:22:50;77910.41;;;-147.22;80.85
74329;BME280;62749;51.982;5.916;2024-01-16T08:25:19;77912.41;;;-147.22;81.11
74329;BME280;62749;51.982;5.916;2024-01-16T08:27:49;77902.34;;;-147.22;81.06
74329;BME280;62749;51.982;5.916;2024-01-16T08:30:18;77896.28;;;-147.22;81.14
74329;BME280;62749;51.982;5.916;2024-01-16T08:32:48;77886.19;;;-147.22;81.00
74329;BME280;62749;51.982;5.916;2024-01-16T08:35:17;77894.25;;;-147.22;80.45
74329;BME280;62749;51.982;5.916;2024-01-16T08:37:50;77900.31;;;-147.22;80.21
74329;BME280;62749;51.982;5.916;2024-01-16T08:40:20;77900.31;;;-147.22;79.81
74329;BME280;62749;51.982;5.916;2024-01-16T08:42:49;77906.38;;;-147.22;80.23
74329;BME280;62749;51.982;5.916;2024-01-16T08:45:21;77902.34;;;-147.22;79.87
74329;BME280;62749;51.982;5.916;2024-01-16T08:47:52;77920.47;;;-147.22;79.77
74329;BME280;62749;51.982;5.916;2024-01-16T08:50:23;77904.34;;;-147.22;80.06
74329;BME280;62749;51.982;5.916;2024-01-16T08:52:55;77910.41;;;-147.22;79.74
74329;BME280;62749;51.982;5.916;2024-01-16T08:55:24;77928.53;;;-147.22;79.19
74329;BME280;62749;51.982;5.916;2024-01-16T08:57:54;77926.53;;;-147.22;79.44
74329;BME280;62749;51.982;5.916;2024-01-16T09:00:23;77930.56;;;-147.22;79.16
74329;BME280;62749;51.982;5.916;2024-01-16T09:02:53;77922.50;;;-147.22;78.90
74329;BME280;62749;51.982;5.916;2024-01-16T09:05:34;77926.53;;;-147.22;78.64
74329;BME280;62749;51.982;5.916;2024-01-16T09:08:07;77912.41;;;-147.22;79.15
74329;BME280;62749;51.982;5.916;2024-01-16T09:10:38;77924.50;;;-147.22;78.48
74329;BME280;62749;51.982;5.916;2024-01-16T09:13:07;77920.47;;;-147.22;78.41
74329;BME280;62749;51.982;5.916;2024-01-16T09:15:37;77932.56;;;-147.22;78.25
74329;BME280;62749;51.982;5.916;2024-01-16T09:18:07;77928.53;;;-147.22;78.10
74329;BME280;62749;51.982;5.916;2024-01-16T09:20:36;77930.56;;;-147.22;78.30
74329;BME280;62749;51.982;5.916;2024-01-16T09:23:08;77922.50;;;-147.22;78.41
74329;BME280;62749;51.982;5.916;2024-01-16T09:25:39;77908.38;;;-147.22;78.47
74329;BME280;62749;51.982;5.916;2024-01-16T09:28:08;77918.47;;;-147.22;77.88
74329;BME280;62749;51.982;5.916;2024-01-16T09:30:38;77912.41;;;-147.22;77.99
74329;BME280;62749;51.982;5.916;2024-01-16T09:33:07;77920.47;;;-147.22;77.75
74329;BME280;62749;51.982;5.916;2024-01-16T09:35:37;77908.38;;;-147.22;77.43
74329;BME280;62749;51.982;5.916;2024-01-16T09:38:09;77902.34;;;-147.22;77.43
74329;BME280;62749;51.982;5.916;2024-01-16T09:40:39;77910.41;;;-147.22;77.18
74329;BME280;62749;51.982;5.916;2024-01-16T09:43:11;77912.41;;;-147.22;77.05
74329;BME280;62749;51.982;5.916;2024-01-16T09:45:41;77892.25;;;-147.22;77.17
74329;BME280;62749;51.982;5.916;2024-01-16T09:48:13;77908.38;;;-147.22;76.54
74329;BME280;62749;51.982;5.916;2024-01-16T09:50:43;77892.25;;;-147.22;76.77
74329;BME280;62749;51.982;5.916;2024-01-16T09:53:15;77900.31;;;-147.22;76.05
74329;BME280;62749;51.982;5.916;2024-01-16T09:55:45;77916.44;;;-147.22;75.83
74329;BME280;62749;51.982;5.916;2024-01-16T09:58:14;77926.53;;;-147.22;75.36
74329;BME280;62749;51.982;5.916;2024-01-16T10:00:46;77916.44;;;-147.22;75.74
74329;BME280;62749;51.982;5.916;2024-01-16T10:03:33;77900.31;;;-147.22;76.05
74329;BME280;62749;51.982;5.916;2024-01-16T10:06:05;77898.28;;;-147.22;75.36
74329;BME280;62749;51.982;5.916;2024-01-16T10:08:39;77894.25;;;-147.22;75.35
74329;BME280;62749;51.982;5.916;2024-01-16T10:11:09;77876.13;;;-147.22;75.68
74329;BME280;62749;51.982;5.916;2024-01-16T10:13:39;77876.13;;;-147.22;74.51
74329;BME280;62749;51.982;5.916;2024-01-16T10:16:09;77872.09;;;-147.22;74.93
74329;BME280;62749;51.982;5.916;2024-01-16T10:18:38;77888.22;;;-147.22;74.59
74329;BME280;62749;51.982;5.916;2024-01-16T10:21:20;77876.13;;;-147.22;74.27
74329;BME280;62749;51.982;5.916;2024-01-16T10:24:15;77880.16;;;-147.22;74.34
74329;BME280;62749;51.982;5.916;2024-01-16T10:26:44;77874.09;;;-147.22;73.90
74329;BME280;62749;51.982;5.916;2024-01-16T10:29:14;77870.06;;;-147.22;74.15
74329;BME280;62749;51.982;5.916;2024-01-16T10:31:43;77870.06;;;-147.22;73.44
74329;BME280;62749;51.982;5.916;2024-01-16T10:34:19;77857.97;;;-147.22;74.02
74329;BME280;62749;51.982;5.916;2024-01-16T10:36:53;77847.88;;;-147.22;74.21
74329;BME280;62749;51.982;5.916;2024-01-16T10:39:29;77851.91;;;-147.22;73.16
74329;BME280;62749;51.982;5.916;2024-01-16T10:42:01;77835.78;;;-147.22;73.76
74329;BME280;62749;51.982;5.916;2024-01-16T10:44:30;77837.81;;;-147.22;72.59
74329;BME280;62749;51.982;5.916;2024-01-16T10:50:04;77819.66;;;-147.22;71.93
74329;BME280;62749;51.982;5.916;2024-01-16T10:52:38;77827.72;;;-147.22;72.53
74329;BME280;62749;51.982;5.916;2024-01-16T10:55:19;77813.59;;;-147.22;72.45
74329;BME280;62749;51.982;5.916;2024-01-16T10:57:50;77807.56;;;-147.22;71.87
74329;BME280;62749;51.982;5.916;2024-01-16T11:00:21;77835.78;;;-147.22;71.62
74329;BME280;62749;51.982;5.916;2024-01-16T11:02:59;77827.72;;;-147.22;72.17
74329;BME280;62749;51.982;5.916;2024-01-16T11:05:31;77813.59;;;-147.22;71.63
74329;BME280;62749;51.982;5.916;2024-01-16T11:08:03;77807.56;;;-147.22;71.63
74329;BME280;62749;51.982;5.916;2024-01-16T11:10:38;77809.56;;;-147.22;71.40
74329;BME280;62749;51.982;5.916;2024-01-16T11:13:07;77789.41;;;-147.22;71.42
74329;BME280;62749;51.982;5.916;2024-01-16T11:15:38;77787.38;;;-147.22;70.23
74329;BME280;62749;51.982;5.916;2024-01-16T11:18:19;77779.31;;;-147.22;70.47
74329;BME280;62749;51.982;5.916;2024-01-16T11:20:49;77767.22;;;-147.22;70.06
74329;BME280;62749;51.982;5.916;2024-01-16T11:23:19;77749.06;;;-147.22;69.34
74329;BME280;62749;51.982;5.916;2024-01-16T11:25:51;77736.97;;;-147.22;69.11
74329;BME280;62749;51.982;5.916;2024-01-16T11:28:30;77743.03;;;-147.22;67.34
74329;BME280;62749;51.982;5.916;2024-01-16T11:31:27;77728.91;;;-147.22;68.01
74329;BME280;62749;51.982;5.916;2024-01-16T11:33:57;77718.84;;;-147.22;68.45
74329;BME280;62749;51.982;5.916;2024-01-16T11:36:43;77700.69;;;-147.22;67.00
74329;BME280;62749;51.982;5.916;2024-01-16T11:39:19;77706.72;;;-147.22;66.39
74329;BME280;62749;51.982;5.916;2024-01-16T11:41:56;77694.63;;;-147.22;66.09
74329;BME280;62749;51.982;5.916;2024-01-16T11:44:40;77666.41;;;-147.22;65.64
74329;BME280;62749;51.982;5.916;2024-01-16T11:47:08;77644.22;;;-147.22;65.38
74329;BME280;62749;51.982;5.916;2024-01-16T11:49:39;77656.31;;;-147.22;64.63
74329;BME280;62749;51.982;5.916;2024-01-16T11:52:09;77676.50;;;-147.22;65.62
74329;BME280;62749;51.982;5.916;2024-01-16T11:54:39;77668.41;;;-147.22;66.02
74329;BME280;62749;51.982;5.916;2024-01-16T11:57:26;77642.22;;;-147.22;64.55
74329;BME280;62749;51.982;5.916;2024-01-16T12:00:01;77690.59;;;-147.22;64.54
74329;BME280;62749;51.982;5.916;2024-01-16T12:02:49;77690.59;;;-147.22;65.88
74329;BME280;62749;51.982;5.916;2024-01-16T12:05:20;77666.41;;;-147.22;66.69
74329;BME280;62749;51.982;5.916;2024-01-16T12:07:52;77652.28;;;-147.22;65.49
74329;BME280;62749;51.982;5.916;2024-01-16T12:10:24;77644.22;;;-147.22;66.34
74329;BME280;62749;51.982;5.916;2024-01-16T12:12:59;77626.06;;;-147.22;65.34
74329;BME280;62749;51.982;5.916;2024-01-16T12:15:34;77642.22;;;-147.22;63.97
74329;BME280;62749;51.982;5.916;2024-01-16T12:18:04;77638.19;;;-147.22;64.59
74329;BME280;62749;51.982;5.916;2024-01-16T12:20:35;77618.00;;;-147.22;65.94
74329;BME280;62749;51.982;5.916;2024-01-16T12:23:06;77605.91;;;-147.22;64.49
74329;BME280;62749;51.982;5.916;2024-01-16T12:25:37;77591.81;;;-147.22;64.75
74329;BME280;62749;51.982;5.916;2024-01-16T12:28:10;77561.56;;;-147.22;64.51
74329;BME280;62749;51.982;5.916;2024-01-16T12:30:49;77579.69;;;-147.22;63.25
74329;BME280;62749;51.982;5.916;2024-01-16T12:33:22;77591.81;;;-147.22;62.93
74329;BME280;62749;51.982;5.916;2024-01-16T12:36:00;77587.75;;;-147.22;63.70
74329;BME280;62749;51.982;5.916;2024-01-16T12:38:31;77579.69;;;-147.22;64.47
74329;BME280;62749;51.982;5.916;2024-01-16T12:41:06;77541.38;;;-147.22;63.51
74329;BME280;62749;51.982;5.916;2024-01-16T12:43:49;77553.50;;;-147.22;62.83
74329;BME280;62749;51.982;5.916;2024-01-16T12:46:18;77539.38;;;-147.22;63.19
74329;BME280;62749;51.982;5.916;2024-01-16T12:48:48;77545.41;;;-147.22;63.15
74329;BME280;62749;51.982;5.916;2024-01-16T12:51:21;77539.38;;;-147.22;62.39
74329;BME280;62749;51.982;5.916;2024-01-16T12:53:51;77565.59;;;-147.22;62.45
74329;BME280;62749;51.982;5.916;2024-01-16T12:56:20;77577.69;;;-147.22;62.79
74329;BME280;62749;51.982;5.916;2024-01-16T12:58:52;77567.59;;;-147.22;62.48
74329;BME280;62749;51.982;5.916;2024-01-16T13:01:24;77591.81;;;-147.22;63.13
74329;BME280;62749;51.982;5.916;2024-01-16T13:03:54;77553.50;;;-147.22;63.42
74329;BME280;62749;51.982;5.916;2024-01-16T13:06:26;77531.31;;;-147.22;63.67
74329;BME280;62749;51.982;5.916;2024-01-16T13:09:05;77513.16;;;-147.22;62.26
74329;BME280;62749;51.982;5.916;2024-01-16T13:11:49;77503.09;;;-147.22;62.75
74329;BME280;62749;51.982;5.916;2024-01-16T13:14:24;77499.03;;;-147.22;62.87